sensor_id;sensor_type;location;lat;lon;timestamp;P1;durP1;ratioP1;P2;durP2;ratioP2
69706;SDS011;56975;55.726;37.566;2024-03-25T00:05:00;1.3;;;0.8;;
69706;SDS011;56975;55.726;37.566;2024-03-25T00:10:00;1.3;;;0.8;;
69706;SDS011;56975;55.726;37.566;2024-03-25T00:20:00;1.0;;;0.8;;
69706;SDS011;56975;55.726;37.566;2024-03-25T00:25:00;0.9;;;0.6;;
69706;SDS011;56975;55.726;37.566;2024-03-25T00:35:00;1.6;;;0.7;;
69706;SDS011;56975;55.726;37.566;2024-03-25T00:40:00;1.2;;;1.0;;
69706;SDS011;56975;55.726;37.566;2024-03-25T00:50:00;1.0;;;0.7;;
69706;SDS011;56975;55.726;37.566;2024-03-25T00:55:00;1.0;;;0.6;;
69706;SDS011;56975;55.726;37.566;2024-03-25T01:05:00;0.7;;;0.5;;
69706;SDS011;56975;55.726;37.566;2024-03-25T01:10:00;0.9;;;0.5;;
69706;SDS011;56975;55.726;37.566;2024-03-25T01:20:00;1.1;;;0.5;;
69706;SDS011;56975;55.726;37.566;2024-03-25T01:25:00;0.7;;;0.5;;
69706;SDS011;56975;55.726;37.566;2024-03-25T01:35:00;0.8;;;0.5;;
69706;SDS011;56975;55.726;37.566;2024-03-25T01:40:00;0.7;;;0.5;;
69706;SDS011;56975;55.726;37.566;2024-03-25T01:50:00;0.6;;;0.4;;
69706;SDS011;56975;55.726;37.566;2024-03-25T01:55:00;0.7;;;0.5;;
69706;SDS011;56975;55.726;37.566;2024-03-25T02:05:00;0.7;;;0.5;;
69706;SDS011;56975;55.726;37.566;2024-03-25T02:20:00;1.4;;;0.7;;
69706;SDS011;56975;55.726;37.566;2024-03-25T02:25:00;1.0;;;0.6;;
69706;SDS011;56975;55.726;37.566;2024-03-25T02:35:00;0.4;;;0.4;;
69706;SDS011;56975;55.726;37.566;2024-03-25T02:40:01;0.8;;;0.5;;
69706;SDS011;56975;55.726;37.566;2024-03-25T02:50:00;1.9;;;0.5;;
69706;SDS011;56975;55.726;37.566;2024-03-25T02:55:00;1.3;;;0.7;;
69706;SDS011;56975;55.726;37.566;2024-03-25T03:05:00;2.1;;;0.7;;
69706;SDS011;56975;55.726;37.566;2024-03-25T03:10:00;0.7;;;0.5;;
69706;SDS011;56975;55.726;37.566;2024-03-25T03:20:00;0.7;;;0.6;;
69706;SDS011;56975;55.726;37.566;2024-03-25T03:25:00;0.9;;;0.6;;
69706;SDS011;56975;55.726;37.566;2024-03-25T03:35:00;0.8;;;0.5;;
69706;SDS011;56975;55.726;37.566;2024-03-25T03:40:00;0.9;;;0.6;;
69706;SDS011;56975;55.726;37.566;2024-03-25T03:50:00;1.5;;;0.8;;
69706;SDS011;56975;55.726;37.566;2024-03-25T03:55:00;1.2;;;0.7;;
69706;SDS011;56975;55.726;37.566;2024-03-25T04:05:00;4.2;;;0.7;;
69706;SDS011;56975;55.726;37.566;2024-03-25T04:20:00;1.5;;;0.7;;
69706;SDS011;56975;55.726;37.566;2024-03-25T04:25:00;2.2;;;1.0;;
69706;SDS011;56975;55.726;37.566;2024-03-25T04:35:00;2.1;;;0.8;;
69706;SDS011;56975;55.726;37.566;2024-03-25T04:50:00;1.6;;;1.0;;
69706;SDS011;56975;55.726;37.566;2024-03-25T05:15:00;1.7;;;1.1;;
69706;SDS011;56975;55.726;37.566;2024-03-25T05:20:00;1.9;;;1.1;;
69706;SDS011;56975;55.726;37.566;2024-03-25T05:30:00;2.2;;;1.2;;
69706;SDS011;56975;55.726;37.566;2024-03-25T05:35:00;2.1;;;1.0;;
69706;SDS011;56975;55.726;37.566;2024-03-25T05:45:00;2.9;;;1.6;;
69706;SDS011;56975;55.726;37.566;2024-03-25T05:50:00;3.1;;;1.2;;
69706;SDS011;56975;55.726;37.566;2024-03-25T06:00:00;2.0;;;1.0;;
69706;SDS011;56975;55.726;37.566;2024-03-25T06:05:00;2.1;;;1.2;;
69706;SDS011;56975;55.726;37.566;2024-03-25T06:20:00;2.9;;;1.6;;
69706;SDS011;56975;55.726;37.566;2024-03-25T06:25:00;2.5;;;1.3;;
69706;SDS011;56975;55.726;37.566;2024-03-25T06:40:00;4.4;;;1.3;;
69706;SDS011;56975;55.726;37.566;2024-03-25T06:50:00;4.4;;;1.7;;
69706;SDS011;56975;55.726;37.566;2024-03-25T07:10:00;5.1;;;1.4;;
69706;SDS011;56975;55.726;37.566;2024-03-25T07:20:00;5.2;;;1.9;;
69706;SDS011;56975;55.726;37.566;2024-03-25T07:25:00;6.0;;;2.1;;
69706;SDS011;56975;55.726;37.566;2024-03-25T07:35:00;6.1;;;1.4;;
69706;SDS011;56975;55.726;37.566;2024-03-25T07:40:00;3.3;;;1.2;;
69706;SDS011;56975;55.726;37.566;2024-03-25T07:55:00;5.6;;;2.1;;
69706;SDS011;56975;55.726;37.566;2024-03-25T08:25:00;7.1;;;3.0;;
69706;SDS011;56975;55.726;37.566;2024-03-25T08:35:00;14.5;;;8.1;;
69706;SDS011;56975;55.726;37.566;2024-03-25T09:30:00;7.0;;;2.3;;
69706;SDS011;56975;55.726;37.566;2024-03-25T09:35:00;6.6;;;2.4;;
69706;SDS011;56975;55.726;37.566;2024-03-25T09:50:00;4.4;;;1.5;;
69706;SDS011;56975;55.726;37.566;2024-03-25T10:05:00;4.8;;;1.7;;
69706;SDS011;56975;55.726;37.566;2024-03-25T10:25:00;6.5;;;2.1;;
69706;SDS011;56975;55.726;37.566;2024-03-25T10:30:00;6.0;;;1.9;;
69706;SDS011;56975;55.726;37.566;2024-03-25T10:50:01;4.9;;;1.7;;
69706;SDS011;56975;55.726;37.566;2024-03-25T11:15:00;8.8;;;2.1;;
69706;SDS011;56975;55.726;37.566;2024-03-25T11:55:00;11.1;;;4.1;;
69706;SDS011;56975;55.726;37.566;2024-03-25T12:00:00;5.3;;;1.8;;
69706;SDS011;56975;55.726;37.566;2024-03-25T12:25:00;10.5;;;2.3;;
69706;SDS011;56975;55.726;37.566;2024-03-25T12:45:00;8.9;;;3.4;;
69706;SDS011;56975;55.726;37.566;2024-03-25T13:30:00;8.7;;;2.9;;
69706;SDS011;56975;55.726;37.566;2024-03-25T13:35:00;11.4;;;3.3;;
69706;SDS011;56975;55.726;37.566;2024-03-25T14:00:00;13.0;;;3.7;;
69706;SDS011;56975;55.726;37.566;2024-03-25T14:45:00;14.2;;;3.8;;
69706;SDS011;56975;55.726;37.566;2024-03-25T14:50:00;7.5;;;2.7;;
69706;SDS011;56975;55.726;37.566;2024-03-25T15:25:00;11.4;;;3.8;;
69706;SDS011;56975;55.726;37.566;2024-03-25T16:30:00;16.5;;;3.9;;
69706;SDS011;56975;55.726;37.566;2024-03-25T16:35:00;8.5;;;3.3;;
69706;SDS011;56975;55.726;37.566;2024-03-25T16:45:00;23.9;;;9.1;;
69706;SDS011;56975;55.726;37.566;2024-03-25T16:50:00;16.2;;;7.1;;
69706;SDS011;56975;55.726;37.566;2024-03-25T17:00:00;10.7;;;4.0;;
69706;SDS011;56975;55.726;37.566;2024-03-25T20:15:00;8.4;;;3.5;;
69706;SDS011;56975;55.726;37.566;2024-03-25T20:20:00;7.1;;;4.1;;
69706;SDS011;56975;55.726;37.566;2024-03-25T20:30:00;9.8;;;3.5;;
69706;SDS011;56975;55.726;37.566;2024-03-25T20:35:00;8.9;;;3.8;;
69706;SDS011;56975;55.726;37.566;2024-03-25T21:35:00;9.4;;;4.2;;
69706;SDS011;56975;55.726;37.566;2024-03-25T21:55:00;6.9;;;3.4;;
69706;SDS011;56975;55.726;37.566;2024-03-25T22:05:00;8.3;;;4.1;;
69706;SDS011;56975;55.726;37.566;2024-03-25T22:10:00;7.4;;;3.2;;
69706;SDS011;56975;55.726;37.566;2024-03-25T22:20:00;8.5;;;3.3;;
69706;SDS011;56975;55.726;37.566;2024-03-25T22:25:00;12.8;;;5.9;;
69706;SDS011;56975;55.726;37.566;2024-03-25T22:35:00;7.3;;;3.9;;
69706;SDS011;56975;55.726;37.566;2024-03-25T22:40:00;12.5;;;4.9;;
69706;SDS011;56975;55.726;37.566;2024-03-25T23:20:00;8.4;;;4.2;;
69706;SDS011;56975;55.726;37.566;2024-03-25T23:25:00;7.8;;;3.4;;
69706;SDS011;56975;55.726;37.566;2024-03-25T23:35:00;11.5;;;4.5;;
69706;SDS011;56975;55.726;37.566;2024-03-25T23:40:00;10.3;;;3.6;;
69706;SDS011;56975;55.726;37.566;2024-03-25T23:50:00;8.3;;;2.9;;
69706;SDS011;56975;55.726;37.566;2024-03-25T23:55:00;7.6;;;2.6;;
